createdAt,value
2018-12-01T08:27:48.735Z,-3.20
2018-12-01T08:30:21.763Z,-3.60
2018-12-01T08:32:50.657Z,-3.20
2018-12-01T08:35:19.567Z,-3.00
2018-12-01T08:37:48.379Z,-2.70
2018-12-01T08:40:18.460Z,-2.40
2018-12-01T08:42:47.276Z,-2.40
2018-12-01T08:45:16.318Z,-2.30
2018-12-01T08:47:45.160Z,-2.30
2018-12-01T08:50:18.160Z,-1.90
2018-12-01T08:52:47.055Z,-1.50
2018-12-01T08:55:17.124Z,-2.20
2018-12-01T08:57:46.096Z,-2.30
2018-12-01T09:00:23.010Z,-2.20
2018-12-01T09:02:56.150Z,-2.50
2018-12-01T09:05:25.045Z,-2.80
2018-12-01T09:07:53.906Z,-2.70
2018-12-01T09:10:22.767Z,-1.80
2018-12-01T09:12:51.577Z,-1.40
2018-12-01T09:15:20.387Z,-1.90
2018-12-01T09:17:49.433Z,-2.00
2018-12-01T09:20:18.285Z,-1.60
2018-12-01T09:22:47.302Z,-1.60
2018-12-01T09:25:34.067Z,-1.40
2018-12-01T09:28:03.061Z,-1.90
2018-12-01T09:30:33.535Z,-1.30
2018-12-01T09:33:02.587Z,-1.70
2018-12-01T09:35:31.419Z,-1.90
2018-12-01T09:38:00.419Z,-2.50
2018-12-01T09:40:29.270Z,-2.70
2018-12-01T09:42:58.099Z,-2.70
2018-12-01T09:45:27.136Z,-2.50
2018-12-01T09:47:56.688Z,-2.10
2018-12-01T09:50:25.635Z,-1.80
2018-12-01T09:52:55.712Z,-1.60
2018-12-01T09:55:26.484Z,-1.80
2018-12-01T09:57:55.408Z,-1.80
2018-12-01T10:00:30.156Z,-2.10
2018-12-01T10:03:00.065Z,-2.30
2018-12-01T10:05:28.931Z,-1.90
2018-12-01T10:07:57.791Z,-1.40
2018-12-01T10:10:26.610Z,-0.80
2018-12-01T10:12:56.543Z,-1.30
2018-12-01T10:15:26.613Z,-1.60
2018-12-01T10:17:55.480Z,-1.20
2018-12-01T10:20:26.535Z,1.90
2018-12-01T10:22:55.450Z,2.90
2018-12-01T10:25:24.245Z,1.10
2018-12-01T10:27:53.086Z,1.00
2018-12-01T10:30:22.450Z,1.00
2018-12-01T10:32:51.941Z,1.50
2018-12-01T10:35:22.961Z,1.60
2018-12-01T10:37:57.134Z,2.10
2018-12-01T10:40:25.983Z,2.80
2018-12-01T10:42:54.803Z,2.80
2018-12-01T10:45:23.837Z,2.30
2018-12-01T10:47:52.654Z,1.30
2018-12-01T10:50:22.429Z,0.60
2018-12-01T10:52:54.411Z,0.30
2018-12-01T10:55:30.899Z,0.20
2018-12-01T10:58:02.315Z,0.00
2018-12-01T11:00:37.008Z,0.20
2018-12-01T11:03:07.243Z,0.40
2018-12-01T11:05:36.838Z,0.30
2018-12-01T11:08:07.903Z,0.30
2018-12-01T11:10:37.035Z,0.00
2018-12-01T11:13:05.899Z,0.20
2018-12-01T11:15:34.691Z,0.30
2018-12-01T11:18:03.682Z,0.00
2018-12-01T11:20:32.528Z,-0.70
2018-12-01T11:23:01.368Z,-0.30
2018-12-01T11:25:30.205Z,0.80
2018-12-01T11:27:59.021Z,1.40
2018-12-01T11:30:28.103Z,1.80
2018-12-01T11:32:56.916Z,1.30
2018-12-01T11:35:25.850Z,0.50
2018-12-01T11:37:54.644Z,0.60
2018-12-01T11:40:23.900Z,0.30
2018-12-01T11:42:52.788Z,-0.80
2018-12-01T11:45:21.690Z,-0.90
2018-12-01T11:47:50.879Z,-0.10
2018-12-01T11:50:20.595Z,-0.30
2018-12-01T11:52:50.443Z,0.10
2018-12-01T11:55:23.039Z,0.20
2018-12-01T11:57:52.541Z,0.00
2018-12-01T12:00:23.469Z,0.30
2018-12-01T12:02:52.298Z,0.90
2018-12-01T12:05:21.309Z,0.80
2018-12-01T12:08:01.419Z,1.60
2018-12-01T12:10:30.386Z,1.80
2018-12-01T12:12:59.180Z,1.90
2018-12-01T12:15:28.324Z,2.10
2018-12-01T12:18:03.843Z,3.10
2018-12-01T12:20:32.772Z,2.80
2018-12-01T12:23:01.584Z,3.00
2018-12-01T12:25:30.380Z,3.30
2018-12-01T12:27:59.249Z,4.30
2018-12-01T12:30:28.116Z,5.00
2018-12-01T12:32:57.710Z,5.70
2018-12-01T12:35:26.547Z,6.10
2018-12-01T12:37:55.384Z,6.00
2018-12-01T12:40:25.260Z,6.10
2018-12-01T12:42:56.365Z,5.90
2018-12-01T12:45:25.568Z,6.00
2018-12-01T12:47:54.384Z,5.90
2018-12-01T12:50:23.206Z,6.80
2018-12-01T12:52:53.950Z,6.60
2018-12-01T12:55:24.482Z,6.00
2018-12-01T12:57:53.359Z,5.80
2018-12-01T13:00:23.937Z,4.80
2018-12-01T13:02:56.066Z,3.70
2018-12-01T13:05:26.401Z,3.50
2018-12-01T13:07:55.187Z,2.80
2018-12-01T13:10:25.016Z,1.90
2018-12-01T13:12:54.001Z,1.30
2018-12-01T13:15:23.045Z,0.70
2018-12-01T13:17:52.081Z,0.10
2018-12-01T13:20:22.851Z,-0.90
2018-12-01T13:22:53.075Z,-1.60
2018-12-01T13:25:22.086Z,-2.40
2018-12-01T13:27:57.651Z,-2.40
2018-12-01T13:30:28.273Z,-2.80
2018-12-01T13:32:57.254Z,-3.10
2018-12-01T13:35:26.258Z,-3.50
2018-12-01T13:37:55.288Z,-3.70
2018-12-01T13:40:24.410Z,-3.80
2018-12-01T13:42:53.520Z,-4.00
2018-12-01T13:45:24.221Z,-4.30
2018-12-01T13:47:53.439Z,-4.40
2018-12-01T13:50:22.597Z,-4.50
2018-12-01T13:52:54.037Z,-4.60
2018-12-01T13:55:23.182Z,-4.60
2018-12-01T13:57:52.703Z,-4.80
2018-12-01T14:00:23.034Z,-5.10
2018-12-01T14:02:52.081Z,-5.20
2018-12-01T14:05:21.145Z,-5.30
2018-12-01T14:07:50.164Z,-5.40
2018-12-01T14:10:21.348Z,-5.50
2018-12-01T14:12:56.303Z,-5.50
2018-12-01T14:15:25.412Z,-5.50
2018-12-01T14:17:54.427Z,-5.60
2018-12-01T14:20:23.442Z,-5.70
2018-12-01T14:22:52.503Z,-6.00
2018-12-01T14:25:22.804Z,-6.10
2018-12-01T14:28:01.598Z,-6.30
2018-12-01T14:30:30.631Z,-6.50
2018-12-01T14:32:59.608Z,-6.60
2018-12-01T14:35:32.682Z,-6.80
2018-12-01T14:38:06.998Z,-7.00
2018-12-01T14:40:36.483Z,-7.10
2018-12-01T14:43:05.518Z,-7.20
2018-12-01T14:45:34.561Z,-7.00
2018-12-01T14:48:03.642Z,-7.10
2018-12-01T14:50:32.487Z,-7.20
2018-12-01T14:53:01.527Z,-7.40
2018-12-01T14:55:30.316Z,-7.40
2018-12-01T14:57:59.193Z,-7.50
2018-12-01T15:00:28.527Z,-7.50
2018-12-01T15:02:57.407Z,-7.60
2018-12-01T15:05:26.860Z,-7.60
2018-12-01T15:07:55.704Z,-7.50
2018-12-01T15:10:26.695Z,-7.50
2018-12-01T15:12:55.764Z,-7.60
2018-12-01T15:15:27.892Z,-7.70
2018-12-01T15:17:56.677Z,-7.80
2018-12-01T15:20:27.220Z,-7.80
2018-12-01T15:23:06.333Z,-7.70
2018-12-01T15:25:36.011Z,-7.70
2018-12-01T15:28:06.000Z,-7.70
2018-12-01T15:30:43.610Z,-7.80
2018-12-01T15:33:17.028Z,-8.00
2018-12-01T15:35:46.813Z,-8.00
2018-12-01T15:38:15.935Z,-8.10
2018-12-01T15:40:47.173Z,-8.20
2018-12-01T15:43:17.063Z,-8.40
2018-12-01T15:45:44.975Z,-8.50
2018-12-01T15:48:13.923Z,-8.70
2018-12-01T15:50:42.838Z,-8.70
2018-12-01T15:53:13.822Z,-8.70
2018-12-01T15:55:43.275Z,-8.80
2018-12-01T15:58:12.526Z,-8.90
2018-12-01T16:00:42.390Z,-9.00
2018-12-01T16:03:11.394Z,-9.10
2018-12-01T16:05:40.300Z,-9.10
2018-12-01T16:08:10.410Z,-9.20
2018-12-01T16:10:39.330Z,-9.30
2018-12-01T16:13:12.074Z,-9.20
2018-12-01T16:15:42.553Z,-9.20
2018-12-01T16:18:11.819Z,-9.20
2018-12-01T16:20:40.679Z,-9.20
2018-12-01T16:23:09.523Z,-9.20
2018-12-01T16:25:38.406Z,-9.30
2018-12-01T16:28:08.327Z,-9.30
2018-12-01T16:30:40.898Z,-9.30
2018-12-01T16:33:20.269Z,-9.40
2018-12-01T16:35:49.897Z,-9.40
2018-12-01T16:38:23.590Z,-9.40
2018-12-01T16:40:59.028Z,-9.50
2018-12-01T16:43:30.084Z,-9.70
2018-12-01T16:45:58.927Z,-9.80
2018-12-01T16:48:27.781Z,-9.90
2018-12-01T16:50:58.673Z,-10.00
2018-12-01T16:53:27.571Z,-10.00
2018-12-01T16:55:56.745Z,-10.10
2018-12-01T16:58:25.630Z,-10.10
2018-12-01T17:00:54.489Z,-10.10
2018-12-01T17:03:23.289Z,-10.10
2018-12-01T17:05:54.941Z,-10.10
2018-12-01T17:08:23.788Z,-10.20
2018-12-01T17:10:52.631Z,-10.30
2018-12-01T17:13:22.401Z,-10.30
2018-12-01T17:15:51.456Z,-10.30
2018-12-01T17:18:20.328Z,-10.30
2018-12-01T17:20:49.271Z,-10.30
2018-12-01T17:23:18.362Z,-10.30
2018-12-01T17:25:47.330Z,-10.30
2018-12-01T17:28:18.670Z,-10.30
2018-12-01T17:30:47.782Z,-10.30
2018-12-01T17:33:16.809Z,-10.20
2018-12-01T17:35:45.762Z,-10.20
2018-12-01T17:38:17.223Z,-10.10
2018-12-01T17:40:49.745Z,-10.00
2018-12-01T17:43:32.344Z,-10.10
2018-12-01T17:46:01.268Z,-10.20
2018-12-01T17:48:30.214Z,-10.30
2018-12-01T17:50:59.208Z,-10.30
2018-12-01T17:53:28.155Z,-10.30
2018-12-01T17:55:57.032Z,-10.20
2018-12-01T17:58:25.943Z,-10.10
2018-12-01T18:00:54.889Z,-10.00
2018-12-01T18:03:23.942Z,-9.90
2018-12-01T18:05:52.893Z,-9.90
2018-12-01T18:08:23.169Z,-10.00
2018-12-01T18:10:54.036Z,-10.00
2018-12-01T18:13:23.508Z,-9.80
2018-12-01T18:15:52.634Z,-9.70
2018-12-01T18:18:21.816Z,-9.70
2018-12-01T18:20:51.004Z,-9.80
2018-12-01T18:23:20.545Z,-10.00
2018-12-01T18:25:52.247Z,-10.10
2018-12-01T18:28:23.957Z,-10.10
2018-12-01T18:30:52.948Z,-10.20
2018-12-01T18:33:27.794Z,-10.20
2018-12-01T18:35:56.711Z,-10.30
2018-12-01T18:38:25.711Z,-10.40
2018-12-01T18:40:54.832Z,-10.40
2018-12-01T18:43:23.699Z,-10.50
2018-12-01T18:45:55.290Z,-10.50
2018-12-01T18:48:24.142Z,-10.50
2018-12-01T18:50:53.041Z,-10.40
2018-12-01T18:53:21.980Z,-10.40
2018-12-01T18:55:53.298Z,-10.50
2018-12-01T18:58:22.188Z,-10.50
2018-12-01T19:00:53.149Z,-10.50
2018-12-01T19:03:24.578Z,-10.50
2018-12-01T19:05:53.522Z,-10.40
2018-12-01T19:08:22.562Z,-10.40
2018-12-01T19:10:51.558Z,-10.30
2018-12-01T19:13:20.819Z,-10.30
2018-12-01T19:15:49.829Z,-10.20
2018-12-01T19:18:18.717Z,-10.10
2018-12-01T19:20:47.616Z,-10.00
2018-12-01T19:23:17.590Z,-9.70
2018-12-01T19:25:47.901Z,-9.70
2018-12-01T19:28:16.778Z,-9.70
2018-12-01T19:30:45.658Z,-9.70
2018-12-01T19:33:19.779Z,-9.60
2018-12-01T19:35:49.745Z,-9.50
2018-12-01T19:38:22.169Z,-9.50
2018-12-01T19:40:51.072Z,-9.40
2018-12-01T19:43:20.041Z,-9.40
2018-12-01T19:45:49.061Z,-9.40
2018-12-01T19:48:18.016Z,-9.30
2018-12-01T19:50:47.074Z,-9.20
2018-12-01T19:53:16.976Z,-9.20
2018-12-01T19:55:47.344Z,-9.20
2018-12-01T19:58:24.316Z,-9.20
2018-12-01T20:00:55.278Z,-9.20
2018-12-01T20:03:25.200Z,-9.20
2018-12-01T20:05:54.230Z,-9.20
2018-12-01T20:08:23.709Z,-9.20
2018-12-01T20:11:02.105Z,-9.10
2018-12-01T20:13:38.175Z,-9.00
2018-12-01T20:16:24.900Z,-8.90
2018-12-01T20:18:54.449Z,-8.80
2018-12-01T20:21:23.662Z,-8.70
2018-12-01T20:23:52.539Z,-8.60
2018-12-01T20:26:21.461Z,-8.40
2018-12-01T20:28:50.972Z,-8.20
2018-12-01T20:31:19.831Z,-8.10
2018-12-01T20:33:49.022Z,-8.00
2018-12-01T20:37:22.321Z,-7.80
2018-12-01T20:39:51.362Z,-7.80
2018-12-01T20:42:20.280Z,-7.80
2018-12-01T20:44:49.267Z,-7.70
2018-12-01T20:47:18.224Z,-7.60
2018-12-01T20:49:47.110Z,-7.50
2018-12-01T20:52:15.940Z,-7.50
2018-12-01T20:54:46.320Z,-7.40
2018-12-01T20:57:21.176Z,-7.40
2018-12-01T20:59:50.127Z,-7.40
2018-12-01T21:02:19.084Z,-7.30
2018-12-01T21:04:48.051Z,-7.30
2018-12-01T21:07:17.040Z,-7.20
2018-12-01T21:09:45.965Z,-7.20
2018-12-01T21:12:15.568Z,-7.10
2018-12-01T21:14:44.620Z,-7.20
2018-12-01T21:17:13.611Z,-7.00
2018-12-01T21:19:42.540Z,-7.00
2018-12-01T21:22:17.532Z,-7.00
2018-12-01T21:24:46.356Z,-7.00
2018-12-01T21:27:15.291Z,-6.80
2018-12-01T21:29:44.237Z,-6.80
2018-12-01T21:32:13.279Z,-6.80
2018-12-01T21:34:42.205Z,-6.90
2018-12-01T21:37:11.209Z,-6.90
2018-12-01T21:39:40.201Z,-6.80
2018-12-01T21:42:09.079Z,-6.80
2018-12-01T21:44:38.030Z,-6.70
2018-12-01T21:47:07.226Z,-6.70
2018-12-01T21:49:36.140Z,-6.40
2018-12-01T21:52:04.946Z,-6.30
2018-12-01T21:54:34.184Z,-6.30
2018-12-01T21:57:03.095Z,-6.40
2018-12-01T21:59:31.947Z,-6.50
2018-12-01T22:02:00.935Z,-6.60
2018-12-01T22:04:29.920Z,-6.60
2018-12-01T22:06:58.930Z,-6.50
2018-12-01T22:09:27.784Z,-6.50
2018-12-01T22:11:56.629Z,-6.50
2018-12-01T22:14:25.486Z,-6.50
2018-12-01T22:16:54.307Z,-6.50
2018-12-01T22:19:23.122Z,-6.40
2018-12-01T22:21:51.982Z,-6.40
2018-12-01T22:24:20.923Z,-6.20
2018-12-01T22:26:49.817Z,-6.20
2018-12-01T22:29:18.675Z,-6.10
2018-12-01T22:31:47.641Z,-6.10
2018-12-01T22:34:16.492Z,-6.10
2018-12-01T22:36:45.389Z,-5.90
2018-12-01T22:39:14.917Z,-5.80
2018-12-01T22:41:43.749Z,-5.90
2018-12-01T22:44:12.622Z,-6.00
2018-12-01T22:46:41.465Z,-5.90
2018-12-01T22:49:10.716Z,-5.90
2018-12-01T22:51:39.612Z,-5.90
2018-12-01T22:54:09.367Z,-5.90
2018-12-01T22:56:38.284Z,-5.80
2018-12-01T22:59:07.539Z,-5.70
2018-12-01T23:01:36.394Z,-5.70
2018-12-01T23:04:05.656Z,-5.70
2018-12-01T23:06:34.585Z,-5.70
2018-12-01T23:09:03.900Z,-5.70
2018-12-01T23:11:33.674Z,-5.60
2018-12-01T23:14:02.516Z,-5.60
2018-12-01T23:16:31.394Z,-5.60
2018-12-01T23:19:04.584Z,-5.60
2018-12-01T23:21:33.611Z,-5.60
2018-12-01T23:24:02.512Z,-5.60
2018-12-01T23:26:31.700Z,-5.40
2018-12-01T23:29:01.861Z,-5.40
2018-12-01T23:31:30.777Z,-5.40
2018-12-01T23:33:59.950Z,-5.30
2018-12-01T23:36:28.884Z,-5.40
2018-12-01T23:38:57.758Z,-5.40
2018-12-01T23:41:27.043Z,-5.30
2018-12-01T23:43:56.190Z,-5.30
2018-12-01T23:46:26.151Z,-5.30
2018-12-01T23:48:55.121Z,-5.10
2018-12-01T23:51:24.165Z,-5.10
2018-12-01T23:53:53.033Z,-5.10
2018-12-01T23:56:22.241Z,-5.10
2018-12-01T23:58:51.127Z,-5.00
